SWA3081 KBWI-KPBI
Flight info
| Callsign | SWA3081 |
|---|---|
| Flight time | 2h 5m |
| Altitude | 40000 |
| Route | CONLE5 SCOOB EARZZ Q131 WAALT Y289 DULEE CLMNT2 |
| Aircraft | B38M/M-SADE2E3GHIJ4J7P2RWZ/LB1D1 |
Departure
| Time | 2026-04-26 17:24 |
|---|---|
| Airport | Baltimore/Washington International Thurgood Marshall Airport (KBWI) |
Arrival
| Time | 2026-04-26 19:29 |
|---|---|
| Airport | Palm Beach International Airport (KPBI) |
| Time | Latitude | Longitude | Altitude | Speed | Heading |
|---|---|---|---|---|---|
| 2026-04-26 16:50 | 39.17736 | -76.66593 | 149 ft | 0 kts | 278° |
| 2026-04-26 16:59 | 39.17736 | -76.66592 | 148 ft | 0 kts | 278° |
| 2026-04-26 17:15 | 39.17735 | -76.66582 | 148 ft | 2 kts | 265° |
| 2026-04-26 17:16 | 39.17739 | -76.66563 | 148 ft | 2 kts | 240° |
| 2026-04-26 17:16 | 39.17749 | -76.66548 | 148 ft | 2 kts | 216° |
| 2026-04-26 17:16 | 39.17762 | -76.66540 | 148 ft | 2 kts | 193° |
| 2026-04-26 17:16 | 39.17772 | -76.66537 | 148 ft | 2 kts | 178° |
| 2026-04-26 17:17 | 39.17791 | -76.66544 | 149 ft | 1 kts | 147° |
| 2026-04-26 17:17 | 39.17796 | -76.66550 | 149 ft | 1 kts | 140° |
| 2026-04-26 17:17 | 39.17798 | -76.66551 | 149 ft | 0 kts | 141° |
| 2026-04-26 17:19 | 39.17769 | -76.66519 | 148 ft | 13 kts | 142° |
| 2026-04-26 17:19 | 39.17683 | -76.66524 | 148 ft | 12 kts | 203° |
| 2026-04-26 17:19 | 39.17628 | -76.66565 | 148 ft | 16 kts | 212° |
| 2026-04-26 17:20 | 39.17528 | -76.66702 | 148 ft | 15 kts | 261° |
| 2026-04-26 17:20 | 39.17525 | -76.66747 | 148 ft | 14 kts | 267° |
| 2026-04-26 17:20 | 39.17474 | -76.66935 | 147 ft | 21 kts | 272° |
| 2026-04-26 17:20 | 39.17511 | -76.67060 | 146 ft | 23 kts | 308° |
| 2026-04-26 17:21 | 39.17677 | -76.67230 | 145 ft | 23 kts | 324° |
| 2026-04-26 17:21 | 39.17812 | -76.67356 | 143 ft | 23 kts | 324° |
| 2026-04-26 17:21 | 39.17944 | -76.67477 | 142 ft | 23 kts | 324° |
| 2026-04-26 17:21 | 39.18073 | -76.67597 | 141 ft | 22 kts | 323° |
| 2026-04-26 17:22 | 39.18199 | -76.67713 | 140 ft | 21 kts | 324° |
| 2026-04-26 17:22 | 39.18322 | -76.67828 | 139 ft | 21 kts | 324° |
| 2026-04-26 17:22 | 39.18440 | -76.67937 | 138 ft | 20 kts | 324° |
| 2026-04-26 17:22 | 39.18548 | -76.68053 | 136 ft | 18 kts | 300° |
| 2026-04-26 17:23 | 39.18521 | -76.68159 | 135 ft | 10 kts | 187° |
| 2026-04-26 17:23 | 39.18459 | -76.68121 | 135 ft | 11 kts | 145° |
| 2026-04-26 17:23 | 39.18164 | -76.67845 | 138 ft | 96 kts | 144° |
| 2026-04-26 17:23 | 39.17412 | -76.67148 | 185 ft | 163 kts | 142° |
| 2026-04-26 17:24 | 39.16775 | -76.66575 | 628 ft | 172 kts | 142° |
| 2026-04-26 17:24 | 39.15420 | -76.65326 | 1630 ft | 190 kts | 140° |
| 2026-04-26 17:24 | 39.14676 | -76.64629 | 2057 ft | 201 kts | 140° |
| 2026-04-26 17:24 | 39.13111 | -76.63172 | 2909 ft | 221 kts | 140° |
| 2026-04-26 17:25 | 39.11817 | -76.61975 | 3542 ft | 238 kts | 140° |
| 2026-04-26 17:25 | 39.10500 | -76.60607 | 4193 ft | 253 kts | 132° |
| 2026-04-26 17:25 | 39.09226 | -76.58956 | 4878 ft | 266 kts | 128° |
| 2026-04-26 17:25 | 39.07952 | -76.57188 | 5656 ft | 276 kts | 129° |
| 2026-04-26 17:26 | 39.07087 | -76.56001 | 6238 ft | 279 kts | 129° |
| 2026-04-26 17:26 | 39.05045 | -76.53873 | 7422 ft | 292 kts | 153° |
| 2026-04-26 17:26 | 39.03035 | -76.53426 | 8265 ft | 302 kts | 182° |
| 2026-04-26 17:26 | 39.00962 | -76.53886 | 9097 ft | 307 kts | 193° |
| 2026-04-26 17:27 | 38.98885 | -76.54594 | 9899 ft | 312 kts | 194° |
| 2026-04-26 17:27 | 38.96750 | -76.55328 | 10561 ft | 323 kts | 194° |
| 2026-04-26 17:27 | 38.95275 | -76.55807 | 10864 ft | 334 kts | 193° |
| 2026-04-26 17:27 | 38.92208 | -76.56739 | 11819 ft | 343 kts | 193° |
| 2026-04-26 17:28 | 38.89865 | -76.57418 | 12579 ft | 347 kts | 193° |
| 2026-04-26 17:28 | 38.88269 | -76.57875 | 13089 ft | 350 kts | 193° |
| 2026-04-26 17:28 | 38.85091 | -76.58783 | 14040 ft | 357 kts | 193° |
| 2026-04-26 17:28 | 38.82646 | -76.59483 | 14798 ft | 360 kts | 193° |
| 2026-04-26 17:29 | 38.80214 | -76.60179 | 15500 ft | 364 kts | 193° |
| 2026-04-26 17:29 | 38.79374 | -76.60419 | 15742 ft | 365 kts | 193° |
| 2026-04-26 17:29 | 38.75261 | -76.61591 | 16911 ft | 371 kts | 193° |
| 2026-04-26 17:29 | 38.72739 | -76.62312 | 17565 ft | 375 kts | 194° |
| 2026-04-26 17:30 | 38.70202 | -76.63039 | 18230 ft | 378 kts | 194° |
| 2026-04-26 17:30 | 38.67609 | -76.63782 | 18930 ft | 380 kts | 194° |
| 2026-04-26 17:30 | 38.65015 | -76.64526 | 19634 ft | 382 kts | 194° |
| 2026-04-26 17:30 | 38.62427 | -76.65266 | 20278 ft | 384 kts | 194° |
| 2026-04-26 17:31 | 38.59788 | -76.66021 | 20912 ft | 387 kts | 194° |
| 2026-04-26 17:31 | 38.57155 | -76.66775 | 21533 ft | 389 kts | 194° |
| 2026-04-26 17:31 | 38.54520 | -76.67529 | 22115 ft | 392 kts | 194° |
| 2026-04-26 17:31 | 38.51851 | -76.68291 | 22718 ft | 394 kts | 194° |
| 2026-04-26 17:32 | 38.50058 | -76.68803 | 23134 ft | 394 kts | 194° |
| 2026-04-26 17:32 | 38.46459 | -76.69831 | 23857 ft | 397 kts | 194° |
| 2026-04-26 17:32 | 38.44655 | -76.70330 | 24269 ft | 397 kts | 193° |
| 2026-04-26 17:32 | 38.40991 | -76.71022 | 24995 ft | 401 kts | 185° |
| 2026-04-26 17:33 | 38.38197 | -76.71038 | 25462 ft | 405 kts | 178° |
| 2026-04-26 17:33 | 38.35357 | -76.70729 | 26059 ft | 405 kts | 175° |
| 2026-04-26 17:33 | 38.32567 | -76.70287 | 26469 ft | 409 kts | 174° |
| 2026-04-26 17:34 | 38.26918 | -76.69274 | 27490 ft | 410 kts | 174° |
| 2026-04-26 17:34 | 38.25021 | -76.68936 | 27772 ft | 412 kts | 174° |
| 2026-04-26 17:34 | 38.21176 | -76.68270 | 28412 ft | 413 kts | 174° |
| 2026-04-26 17:34 | 38.18322 | -76.67789 | 28814 ft | 416 kts | 175° |
| 2026-04-26 17:35 | 38.15460 | -76.67316 | 29317 ft | 415 kts | 175° |
| 2026-04-26 17:35 | 38.12574 | -76.66843 | 29708 ft | 417 kts | 175° |
| 2026-04-26 17:35 | 38.09649 | -76.66374 | 30062 ft | 420 kts | 176° |
| 2026-04-26 17:35 | 38.06752 | -76.66024 | 30536 ft | 418 kts | 179° |
| 2026-04-26 17:36 | 38.03860 | -76.65802 | 30819 ft | 421 kts | 180° |
| 2026-04-26 17:36 | 38.00927 | -76.65636 | 31245 ft | 422 kts | 181° |
| 2026-04-26 17:36 | 37.97964 | -76.65483 | 31536 ft | 425 kts | 181° |
| 2026-04-26 17:36 | 37.95004 | -76.65325 | 31985 ft | 425 kts | 181° |
| 2026-04-26 17:37 | 37.92065 | -76.65160 | 32369 ft | 425 kts | 181° |
| 2026-04-26 17:37 | 37.89113 | -76.64984 | 32712 ft | 427 kts | 180° |
| 2026-04-26 17:37 | 37.86076 | -76.64798 | 33008 ft | 430 kts | 181° |
| 2026-04-26 17:38 | 37.80103 | -76.64417 | 33673 ft | 434 kts | 180° |
| 2026-04-26 17:38 | 37.77099 | -76.64223 | 34085 ft | 433 kts | 180° |
| 2026-04-26 17:38 | 37.75099 | -76.64090 | 34391 ft | 431 kts | 180° |
| 2026-04-26 17:38 | 37.72202 | -76.63899 | 34578 ft | 434 kts | 181° |
| 2026-04-26 17:39 | 37.70628 | -76.63795 | 34793 ft | 433 kts | 181° |
| 2026-04-26 17:39 | 37.67782 | -76.63608 | 34991 ft | 436 kts | 181° |
| 2026-04-26 17:39 | 37.63726 | -76.63340 | 35251 ft | 440 kts | 180° |
| 2026-04-26 17:39 | 37.61747 | -76.63220 | 35422 ft | 440 kts | 181° |
| 2026-04-26 17:40 | 37.57724 | -76.63211 | 35912 ft | 434 kts | 186° |
| 2026-04-26 17:40 | 37.56733 | -76.63279 | 36020 ft | 432 kts | 187° |
| 2026-04-26 17:40 | 37.52769 | -76.63721 | 36512 ft | 429 kts | 190° |
| 2026-04-26 17:40 | 37.48763 | -76.64301 | 36947 ft | 430 kts | 190° |
| 2026-04-26 17:41 | 37.45805 | -76.64747 | 37247 ft | 430 kts | 190° |
| 2026-04-26 17:41 | 37.42822 | -76.65191 | 37568 ft | 430 kts | 190° |
| 2026-04-26 17:41 | 37.40821 | -76.65484 | 37778 ft | 431 kts | 190° |
| 2026-04-26 17:41 | 37.36888 | -76.66048 | 38262 ft | 429 kts | 190° |
| 2026-04-26 17:42 | 37.33850 | -76.66477 | 38484 ft | 430 kts | 191° |
| 2026-04-26 17:42 | 37.30892 | -76.66889 | 38676 ft | 431 kts | 190° |
| 2026-04-26 17:42 | 37.27887 | -76.67305 | 38889 ft | 432 kts | 190° |
| 2026-04-26 17:42 | 37.25891 | -76.67580 | 39070 ft | 431 kts | 190° |
| 2026-04-26 17:43 | 37.21888 | -76.68124 | 39374 ft | 432 kts | 190° |
| 2026-04-26 17:43 | 37.18887 | -76.68532 | 39524 ft | 433 kts | 191° |
| 2026-04-26 17:43 | 37.15890 | -76.68941 | 39701 ft | 434 kts | 191° |
| 2026-04-26 17:43 | 37.12912 | -76.69347 | 39864 ft | 435 kts | 190° |
| 2026-04-26 17:44 | 37.09897 | -76.69756 | 40058 ft | 434 kts | 191° |
| 2026-04-26 17:44 | 37.06861 | -76.70166 | 40094 ft | 436 kts | 191° |
| 2026-04-26 17:44 | 37.00838 | -76.70973 | 40096 ft | 433 kts | 190° |
| 2026-04-26 17:45 | 36.94843 | -76.71782 | 40091 ft | 434 kts | 190° |
| 2026-04-26 17:45 | 36.90477 | -76.72375 | 40088 ft | 434 kts | 190° |
| 2026-04-26 17:46 | 36.84483 | -76.73189 | 40090 ft | 434 kts | 190° |
| 2026-04-26 17:46 | 36.78565 | -76.73986 | 40093 ft | 435 kts | 190° |
| 2026-04-26 17:47 | 36.74560 | -76.74521 | 40089 ft | 434 kts | 190° |
| 2026-04-26 17:47 | 36.67560 | -76.75457 | 40088 ft | 435 kts | 191° |
| 2026-04-26 17:48 | 36.60573 | -76.76387 | 40085 ft | 438 kts | 190° |
| 2026-04-26 17:48 | 36.54528 | -76.77190 | 40081 ft | 435 kts | 191° |
| 2026-04-26 17:49 | 36.48491 | -76.77995 | 40071 ft | 436 kts | 191° |
| 2026-04-26 17:49 | 36.42417 | -76.78809 | 40067 ft | 438 kts | 191° |
| 2026-04-26 17:50 | 36.36328 | -76.79623 | 40064 ft | 437 kts | 191° |
| 2026-04-26 17:50 | 36.30307 | -76.80425 | 40056 ft | 437 kts | 191° |
| 2026-04-26 17:51 | 36.24238 | -76.81231 | 40055 ft | 439 kts | 191° |
| 2026-04-26 17:51 | 36.19150 | -76.81907 | 40061 ft | 438 kts | 190° |
| 2026-04-26 17:52 | 36.13055 | -76.82713 | 40056 ft | 439 kts | 190° |
| 2026-04-26 17:52 | 36.05938 | -76.83649 | 40049 ft | 438 kts | 190° |
| 2026-04-26 17:53 | 35.99865 | -76.84444 | 40053 ft | 438 kts | 191° |
| 2026-04-26 17:54 | 35.90852 | -76.86159 | 40043 ft | 432 kts | 202° |
| 2026-04-26 17:54 | 35.85321 | -76.88923 | 40045 ft | 430 kts | 210° |
| 2026-04-26 17:55 | 35.80036 | -76.92212 | 40043 ft | 426 kts | 212° |
| 2026-04-26 17:55 | 35.74762 | -76.95560 | 40042 ft | 428 kts | 212° |
| 2026-04-26 17:56 | 35.69426 | -76.98903 | 40041 ft | 429 kts | 211° |
| 2026-04-26 17:57 | 35.58701 | -77.05510 | 40041 ft | 431 kts | 211° |
| 2026-04-26 17:57 | 35.53337 | -77.08792 | 40041 ft | 428 kts | 211° |
| 2026-04-26 17:58 | 35.42632 | -77.15324 | 40031 ft | 432 kts | 211° |
| 2026-04-26 17:59 | 35.34528 | -77.20249 | 40017 ft | 431 kts | 211° |
| 2026-04-26 17:59 | 35.29166 | -77.23511 | 40025 ft | 432 kts | 211° |
| 2026-04-26 18:00 | 35.23758 | -77.26801 | 40031 ft | 433 kts | 211° |
| 2026-04-26 18:00 | 35.18364 | -77.30071 | 40024 ft | 432 kts | 211° |
| 2026-04-26 18:01 | 35.13211 | -77.33187 | 40015 ft | 432 kts | 211° |
| 2026-04-26 18:01 | 35.07816 | -77.36438 | 40018 ft | 431 kts | 211° |
| 2026-04-26 18:02 | 35.04243 | -77.38590 | 40020 ft | 433 kts | 211° |
| 2026-04-26 18:02 | 34.96976 | -77.42962 | 40022 ft | 433 kts | 211° |
| 2026-04-26 18:03 | 34.91567 | -77.46216 | 40025 ft | 432 kts | 211° |
| 2026-04-26 18:03 | 34.86176 | -77.49457 | 40028 ft | 433 kts | 211° |
| 2026-04-26 18:04 | 34.80803 | -77.52682 | 40009 ft | 432 kts | 211° |
| 2026-04-26 18:05 | 34.72673 | -77.57548 | 40020 ft | 432 kts | 212° |
| 2026-04-26 18:05 | 34.67212 | -77.60809 | 40009 ft | 433 kts | 212° |
| 2026-04-26 18:06 | 34.61809 | -77.64028 | 39999 ft | 433 kts | 212° |
| 2026-04-26 18:06 | 34.56298 | -77.67104 | 39999 ft | 437 kts | 206° |
| 2026-04-26 18:07 | 34.50482 | -77.69140 | 40001 ft | 447 kts | 198° |
| 2026-04-26 18:07 | 34.44546 | -77.70615 | 39990 ft | 447 kts | 197° |
| 2026-04-26 18:08 | 34.38529 | -77.72031 | 39990 ft | 449 kts | 197° |
| 2026-04-26 18:08 | 34.32382 | -77.73523 | 39989 ft | 447 kts | 197° |
| 2026-04-26 18:09 | 34.26282 | -77.75040 | 39978 ft | 446 kts | 197° |
| 2026-04-26 18:09 | 34.20209 | -77.76571 | 39973 ft | 448 kts | 198° |
| 2026-04-26 18:10 | 34.14089 | -77.78120 | 39970 ft | 446 kts | 198° |
| 2026-04-26 18:10 | 34.07990 | -77.79662 | 39974 ft | 449 kts | 198° |
| 2026-04-26 18:11 | 34.01881 | -77.81203 | 39953 ft | 448 kts | 198° |
| 2026-04-26 18:11 | 33.95728 | -77.82752 | 39976 ft | 450 kts | 198° |
| 2026-04-26 18:12 | 33.89592 | -77.84295 | 39965 ft | 447 kts | 198° |
| 2026-04-26 18:12 | 33.83495 | -77.85827 | 39975 ft | 449 kts | 198° |
| 2026-04-26 18:13 | 33.77362 | -77.87399 | 39957 ft | 446 kts | 200° |
| 2026-04-26 18:13 | 33.72377 | -77.88995 | 39962 ft | 445 kts | 202° |
| 2026-04-26 18:14 | 33.65412 | -77.91451 | 39959 ft | 446 kts | 203° |
| 2026-04-26 18:14 | 33.59467 | -77.93538 | 39961 ft | 445 kts | 202° |
| 2026-04-26 18:15 | 33.53513 | -77.95592 | 39949 ft | 446 kts | 202° |
| 2026-04-26 18:15 | 33.47548 | -77.97625 | 39950 ft | 445 kts | 202° |
| 2026-04-26 18:16 | 33.42605 | -77.99304 | 39938 ft | 446 kts | 202° |
| 2026-04-26 18:16 | 33.33604 | -78.02344 | 39937 ft | 447 kts | 202° |
| 2026-04-26 18:17 | 33.27650 | -78.04350 | 39942 ft | 447 kts | 202° |
| 2026-04-26 18:17 | 33.21655 | -78.06365 | 39933 ft | 445 kts | 202° |
| 2026-04-26 18:18 | 33.14652 | -78.08709 | 39929 ft | 448 kts | 202° |
| 2026-04-26 18:18 | 33.09644 | -78.10387 | 39934 ft | 448 kts | 202° |
| 2026-04-26 18:19 | 33.03641 | -78.12394 | 39935 ft | 446 kts | 202° |
| 2026-04-26 18:19 | 32.97655 | -78.14399 | 39933 ft | 448 kts | 202° |
| 2026-04-26 18:20 | 32.90633 | -78.16740 | 39922 ft | 448 kts | 202° |
| 2026-04-26 18:20 | 32.86667 | -78.18060 | 39937 ft | 446 kts | 203° |
| 2026-04-26 18:21 | 32.78640 | -78.20732 | 39930 ft | 450 kts | 202° |
| 2026-04-26 18:21 | 32.72643 | -78.22719 | 39929 ft | 449 kts | 202° |
| 2026-04-26 18:22 | 32.66601 | -78.24728 | 39922 ft | 451 kts | 203° |
| 2026-04-26 18:22 | 32.60505 | -78.26752 | 39918 ft | 452 kts | 203° |
| 2026-04-26 18:23 | 32.54449 | -78.28752 | 39919 ft | 453 kts | 203° |
| 2026-04-26 18:23 | 32.49393 | -78.30423 | 39926 ft | 454 kts | 203° |
| 2026-04-26 18:24 | 32.42287 | -78.32764 | 39925 ft | 455 kts | 202° |
| 2026-04-26 18:24 | 32.36229 | -78.34759 | 39925 ft | 454 kts | 203° |
| 2026-04-26 18:25 | 32.31101 | -78.36449 | 39926 ft | 457 kts | 203° |
| 2026-04-26 18:25 | 32.23941 | -78.38799 | 39926 ft | 458 kts | 202° |
| 2026-04-26 18:26 | 32.17813 | -78.40805 | 39929 ft | 458 kts | 203° |
| 2026-04-26 18:26 | 32.11681 | -78.42812 | 39929 ft | 457 kts | 202° |
| 2026-04-26 18:27 | 32.05500 | -78.44827 | 39920 ft | 460 kts | 203° |
| 2026-04-26 18:27 | 31.99352 | -78.46838 | 39910 ft | 461 kts | 203° |
| 2026-04-26 18:28 | 31.93160 | -78.48862 | 39907 ft | 463 kts | 203° |
| 2026-04-26 18:28 | 31.86930 | -78.50893 | 39905 ft | 462 kts | 202° |
| 2026-04-26 18:29 | 31.80760 | -78.52897 | 39906 ft | 463 kts | 203° |
| 2026-04-26 18:29 | 31.74555 | -78.54925 | 39909 ft | 462 kts | 203° |
| 2026-04-26 18:30 | 31.68336 | -78.56950 | 39910 ft | 466 kts | 202° |
| 2026-04-26 18:30 | 31.62081 | -78.58970 | 39906 ft | 462 kts | 202° |
| 2026-04-26 18:31 | 31.55856 | -78.60973 | 39909 ft | 466 kts | 202° |
| 2026-04-26 18:31 | 31.49601 | -78.63030 | 39906 ft | 465 kts | 204° |
| 2026-04-26 18:32 | 31.43401 | -78.65158 | 39911 ft | 466 kts | 203° |
| 2026-04-26 18:32 | 31.37259 | -78.67277 | 39905 ft | 465 kts | 203° |
| 2026-04-26 18:33 | 31.31006 | -78.69432 | 39903 ft | 467 kts | 203° |
| 2026-04-26 18:33 | 31.24782 | -78.71560 | 39911 ft | 467 kts | 202° |
| 2026-04-26 18:34 | 31.18545 | -78.73693 | 39901 ft | 467 kts | 202° |
| 2026-04-26 18:34 | 31.12260 | -78.75835 | 39900 ft | 471 kts | 202° |
| 2026-04-26 18:35 | 31.06008 | -78.77957 | 39906 ft | 468 kts | 202° |
| 2026-04-26 18:35 | 30.99743 | -78.80084 | 39912 ft | 468 kts | 202° |
| 2026-04-26 18:36 | 30.93479 | -78.82209 | 39916 ft | 470 kts | 202° |
| 2026-04-26 18:36 | 30.87213 | -78.84341 | 39920 ft | 469 kts | 202° |
| 2026-04-26 18:37 | 30.80956 | -78.86456 | 39915 ft | 467 kts | 202° |
| 2026-04-26 18:37 | 30.74685 | -78.88569 | 39938 ft | 469 kts | 202° |
| 2026-04-26 18:38 | 30.68448 | -78.90668 | 39914 ft | 467 kts | 202° |
| 2026-04-26 18:38 | 30.62187 | -78.92773 | 39933 ft | 468 kts | 201° |
| 2026-04-26 18:39 | 30.55957 | -78.94866 | 39918 ft | 466 kts | 201° |
| 2026-04-26 18:39 | 30.49703 | -78.96961 | 39922 ft | 465 kts | 201° |
| 2026-04-26 18:40 | 30.43509 | -78.99048 | 39918 ft | 465 kts | 201° |
| 2026-04-26 18:40 | 30.37233 | -79.00972 | 39932 ft | 468 kts | 198° |
| 2026-04-26 18:41 | 30.31902 | -79.02353 | 39921 ft | 469 kts | 197° |
| 2026-04-26 18:41 | 30.24473 | -79.04208 | 39925 ft | 469 kts | 197° |
| 2026-04-26 18:42 | 30.18099 | -79.05829 | 39923 ft | 466 kts | 197° |
| 2026-04-26 18:42 | 30.11775 | -79.07461 | 39927 ft | 468 kts | 198° |
| 2026-04-26 18:43 | 30.05392 | -79.09117 | 39925 ft | 466 kts | 198° |
| 2026-04-26 18:43 | 29.99062 | -79.10763 | 39934 ft | 467 kts | 197° |
| 2026-04-26 18:44 | 29.92739 | -79.12402 | 39939 ft | 466 kts | 198° |
| 2026-04-26 18:44 | 29.86488 | -79.14026 | 39941 ft | 467 kts | 198° |
| 2026-04-26 18:45 | 29.80038 | -79.15700 | 39938 ft | 469 kts | 198° |
| 2026-04-26 18:45 | 29.73649 | -79.17335 | 39941 ft | 468 kts | 197° |
| 2026-04-26 18:46 | 29.67285 | -79.18953 | 39935 ft | 471 kts | 198° |
| 2026-04-26 18:46 | 29.60891 | -79.20576 | 39929 ft | 471 kts | 198° |
| 2026-04-26 18:47 | 29.54425 | -79.22215 | 39929 ft | 472 kts | 197° |
| 2026-04-26 18:47 | 29.48020 | -79.23846 | 39933 ft | 472 kts | 198° |
| 2026-04-26 18:48 | 29.42679 | -79.25200 | 39923 ft | 472 kts | 198° |
| 2026-04-26 18:48 | 29.35208 | -79.27093 | 39921 ft | 472 kts | 198° |
| 2026-04-26 18:49 | 29.29864 | -79.28447 | 39925 ft | 472 kts | 198° |
| 2026-04-26 18:49 | 29.22369 | -79.30343 | 39926 ft | 473 kts | 198° |
| 2026-04-26 18:50 | 29.15946 | -79.31963 | 39924 ft | 472 kts | 198° |
| 2026-04-26 18:50 | 29.09492 | -79.33588 | 39935 ft | 474 kts | 198° |
| 2026-04-26 18:51 | 29.04166 | -79.34931 | 39918 ft | 473 kts | 198° |
| 2026-04-26 18:51 | 28.96633 | -79.36829 | 39927 ft | 473 kts | 198° |
| 2026-04-26 18:52 | 28.90214 | -79.38446 | 39921 ft | 474 kts | 198° |
| 2026-04-26 18:52 | 28.83728 | -79.40070 | 39928 ft | 472 kts | 198° |
| 2026-04-26 18:53 | 28.77440 | -79.41637 | 39532 ft | 467 kts | 197° |
| 2026-04-26 18:53 | 28.74293 | -79.42419 | 39064 ft | 464 kts | 198° |
| 2026-04-26 18:53 | 28.71140 | -79.43205 | 38493 ft | 463 kts | 198° |
| 2026-04-26 18:54 | 28.69053 | -79.43726 | 38086 ft | 463 kts | 198° |
| 2026-04-26 18:54 | 28.64818 | -79.44785 | 37213 ft | 462 kts | 198° |
| 2026-04-26 18:54 | 28.61681 | -79.45569 | 36583 ft | 462 kts | 198° |
| 2026-04-26 18:54 | 28.58561 | -79.46348 | 35940 ft | 461 kts | 199° |
| 2026-04-26 18:55 | 28.55429 | -79.47130 | 35241 ft | 461 kts | 199° |
| 2026-04-26 18:55 | 28.52292 | -79.47914 | 34503 ft | 463 kts | 199° |
| 2026-04-26 18:55 | 28.49150 | -79.48698 | 33773 ft | 463 kts | 198° |
| 2026-04-26 18:55 | 28.45975 | -79.49490 | 33267 ft | 464 kts | 198° |
| 2026-04-26 18:56 | 28.42813 | -79.50277 | 32720 ft | 465 kts | 198° |
| 2026-04-26 18:56 | 28.39672 | -79.51056 | 32138 ft | 461 kts | 198° |
| 2026-04-26 18:56 | 28.36570 | -79.51823 | 31557 ft | 457 kts | 197° |
| 2026-04-26 18:56 | 28.33485 | -79.52586 | 30981 ft | 453 kts | 198° |
| 2026-04-26 18:57 | 28.30398 | -79.53349 | 30405 ft | 448 kts | 197° |
| 2026-04-26 18:57 | 28.29371 | -79.53606 | 30208 ft | 447 kts | 197° |
| 2026-04-26 18:57 | 28.24377 | -79.54920 | 29262 ft | 440 kts | 198° |
| 2026-04-26 18:57 | 28.21423 | -79.55728 | 28697 ft | 436 kts | 198° |
| 2026-04-26 18:58 | 28.18483 | -79.56539 | 28131 ft | 432 kts | 198° |
| 2026-04-26 18:58 | 28.15592 | -79.57336 | 27570 ft | 428 kts | 198° |
| 2026-04-26 18:58 | 28.12679 | -79.58138 | 27007 ft | 424 kts | 198° |
| 2026-04-26 18:58 | 28.09868 | -79.58910 | 26464 ft | 420 kts | 198° |
| 2026-04-26 18:59 | 28.07043 | -79.59685 | 25918 ft | 416 kts | 197° |
| 2026-04-26 18:59 | 28.04217 | -79.60458 | 25363 ft | 412 kts | 197° |
| 2026-04-26 18:59 | 28.01450 | -79.61214 | 24828 ft | 407 kts | 197° |
| 2026-04-26 18:59 | 27.98722 | -79.61958 | 24292 ft | 404 kts | 197° |
| 2026-04-26 19:00 | 27.95983 | -79.62704 | 23752 ft | 400 kts | 197° |
| 2026-04-26 19:00 | 27.93304 | -79.63434 | 23228 ft | 396 kts | 197° |
| 2026-04-26 19:00 | 27.90651 | -79.64155 | 22701 ft | 392 kts | 197° |
| 2026-04-26 19:00 | 27.88866 | -79.64638 | 22350 ft | 389 kts | 197° |
| 2026-04-26 19:01 | 27.85385 | -79.65583 | 21658 ft | 384 kts | 196° |
| 2026-04-26 19:01 | 27.82865 | -79.66265 | 21162 ft | 381 kts | 196° |
| 2026-04-26 19:01 | 27.80303 | -79.66957 | 20647 ft | 377 kts | 196° |
| 2026-04-26 19:01 | 27.77764 | -79.67642 | 20139 ft | 374 kts | 197° |
| 2026-04-26 19:02 | 27.75293 | -79.68309 | 19647 ft | 370 kts | 196° |
| 2026-04-26 19:02 | 27.72800 | -79.68983 | 19144 ft | 367 kts | 196° |
| 2026-04-26 19:02 | 27.70336 | -79.69647 | 18648 ft | 363 kts | 196° |
| 2026-04-26 19:02 | 27.69503 | -79.69871 | 18479 ft | 362 kts | 197° |
| 2026-04-26 19:03 | 27.65454 | -79.70969 | 17660 ft | 356 kts | 196° |
| 2026-04-26 19:03 | 27.63849 | -79.71403 | 17348 ft | 354 kts | 196° |
| 2026-04-26 19:03 | 27.60669 | -79.72265 | 16720 ft | 349 kts | 196° |
| 2026-04-26 19:03 | 27.58305 | -79.72903 | 16233 ft | 346 kts | 196° |
| 2026-04-26 19:04 | 27.55976 | -79.73528 | 15765 ft | 343 kts | 196° |
| 2026-04-26 19:04 | 27.53660 | -79.74151 | 15293 ft | 340 kts | 196° |
| 2026-04-26 19:04 | 27.51364 | -79.74767 | 14825 ft | 337 kts | 196° |
| 2026-04-26 19:04 | 27.49086 | -79.75380 | 14359 ft | 334 kts | 197° |
| 2026-04-26 19:05 | 27.44582 | -79.76592 | 13446 ft | 328 kts | 196° |
| 2026-04-26 19:05 | 27.42370 | -79.77187 | 12990 ft | 325 kts | 197° |
| 2026-04-26 19:05 | 27.40183 | -79.77775 | 12540 ft | 322 kts | 197° |
| 2026-04-26 19:06 | 27.37976 | -79.78366 | 12084 ft | 319 kts | 196° |
| 2026-04-26 19:06 | 27.35823 | -79.78943 | 11639 ft | 317 kts | 196° |
| 2026-04-26 19:06 | 27.33688 | -79.79512 | 11198 ft | 314 kts | 197° |
| 2026-04-26 19:06 | 27.31563 | -79.80081 | 10754 ft | 311 kts | 196° |
| 2026-04-26 19:07 | 27.29476 | -79.80640 | 10352 ft | 307 kts | 197° |
| 2026-04-26 19:07 | 27.27423 | -79.81189 | 10146 ft | 296 kts | 196° |
| 2026-04-26 19:07 | 27.26105 | -79.81541 | 10085 ft | 287 kts | 197° |
| 2026-04-26 19:07 | 27.23545 | -79.82227 | 9717 ft | 280 kts | 197° |
| 2026-04-26 19:08 | 27.21669 | -79.82745 | 9342 ft | 278 kts | 199° |
| 2026-04-26 19:08 | 27.19867 | -79.83490 | 9000 ft | 272 kts | 208° |
| 2026-04-26 19:08 | 27.18173 | -79.84469 | 8659 ft | 268 kts | 212° |
| 2026-04-26 19:08 | 27.16556 | -79.85486 | 8327 ft | 266 kts | 212° |
| 2026-04-26 19:09 | 27.14940 | -79.86491 | 7988 ft | 263 kts | 212° |
| 2026-04-26 19:09 | 27.13322 | -79.87472 | 7664 ft | 261 kts | 212° |
| 2026-04-26 19:09 | 27.11723 | -79.88430 | 7330 ft | 258 kts | 211° |
| 2026-04-26 19:09 | 27.10665 | -79.89062 | 7114 ft | 256 kts | 211° |
| 2026-04-26 19:10 | 27.08589 | -79.90300 | 6695 ft | 253 kts | 211° |
| 2026-04-26 19:10 | 27.07005 | -79.91241 | 6371 ft | 257 kts | 210° |
| 2026-04-26 19:10 | 27.05420 | -79.92180 | 6043 ft | 257 kts | 210° |
| 2026-04-26 19:10 | 27.03844 | -79.93119 | 5724 ft | 253 kts | 211° |
| 2026-04-26 19:11 | 27.02290 | -79.94044 | 5397 ft | 251 kts | 210° |
| 2026-04-26 19:11 | 27.00767 | -79.94952 | 5096 ft | 248 kts | 211° |
| 2026-04-26 19:11 | 26.99227 | -79.95873 | 4775 ft | 254 kts | 210° |
| 2026-04-26 19:11 | 26.97673 | -79.96801 | 4453 ft | 252 kts | 210° |
| 2026-04-26 19:12 | 26.96122 | -79.97729 | 4137 ft | 250 kts | 210° |
| 2026-04-26 19:12 | 26.94650 | -79.98739 | 3968 ft | 249 kts | 217° |
| 2026-04-26 19:12 | 26.93249 | -79.99914 | 3958 ft | 253 kts | 219° |
| 2026-04-26 19:12 | 26.92318 | -80.00732 | 3964 ft | 253 kts | 220° |
| 2026-04-26 19:13 | 26.90454 | -80.02365 | 3951 ft | 254 kts | 219° |
| 2026-04-26 19:13 | 26.89072 | -80.03558 | 3958 ft | 252 kts | 219° |
| 2026-04-26 19:13 | 26.87641 | -80.04785 | 3969 ft | 254 kts | 219° |
| 2026-04-26 19:13 | 26.86350 | -80.05892 | 3964 ft | 254 kts | 219° |
| 2026-04-26 19:14 | 26.84947 | -80.07098 | 3964 ft | 252 kts | 219° |
| 2026-04-26 19:14 | 26.83570 | -80.08285 | 3960 ft | 243 kts | 219° |
| 2026-04-26 19:14 | 26.82256 | -80.09427 | 3966 ft | 235 kts | 220° |
| 2026-04-26 19:14 | 26.81837 | -80.09809 | 3960 ft | 232 kts | 223° |
| 2026-04-26 19:15 | 26.80453 | -80.12210 | 3970 ft | 219 kts | 262° |
| 2026-04-26 19:15 | 26.80353 | -80.13924 | 3976 ft | 220 kts | 269° |
| 2026-04-26 19:15 | 26.80297 | -80.15625 | 3970 ft | 219 kts | 267° |
| 2026-04-26 19:15 | 26.80196 | -80.17320 | 3970 ft | 219 kts | 266° |
| 2026-04-26 19:16 | 26.80114 | -80.18446 | 3970 ft | 219 kts | 265° |
| 2026-04-26 19:16 | 26.79945 | -80.20712 | 3979 ft | 219 kts | 265° |
| 2026-04-26 19:16 | 26.79785 | -80.22407 | 3973 ft | 217 kts | 264° |
| 2026-04-26 19:16 | 26.79603 | -80.24079 | 3963 ft | 217 kts | 264° |
| 2026-04-26 19:17 | 26.79424 | -80.25764 | 3962 ft | 220 kts | 264° |
| 2026-04-26 19:17 | 26.79250 | -80.27469 | 3964 ft | 219 kts | 264° |
| 2026-04-26 19:17 | 26.79136 | -80.28597 | 3961 ft | 218 kts | 264° |
| 2026-04-26 19:17 | 26.78910 | -80.30849 | 3954 ft | 218 kts | 264° |
| 2026-04-26 19:18 | 26.78742 | -80.32533 | 3959 ft | 219 kts | 264° |
| 2026-04-26 19:18 | 26.78574 | -80.34219 | 3961 ft | 219 kts | 264° |
| 2026-04-26 19:18 | 26.78405 | -80.35914 | 3955 ft | 219 kts | 264° |
| 2026-04-26 19:18 | 26.78236 | -80.37617 | 3955 ft | 218 kts | 265° |
| 2026-04-26 19:19 | 26.78071 | -80.39297 | 3956 ft | 217 kts | 264° |
| 2026-04-26 19:19 | 26.77962 | -80.40408 | 3965 ft | 218 kts | 264° |
| 2026-04-26 19:19 | 26.77739 | -80.42674 | 3969 ft | 217 kts | 265° |
| 2026-04-26 19:19 | 26.77576 | -80.44342 | 3969 ft | 218 kts | 265° |
| 2026-04-26 19:20 | 26.77410 | -80.46030 | 3972 ft | 219 kts | 264° |
| 2026-04-26 19:20 | 26.77354 | -80.46595 | 3972 ft | 219 kts | 265° |
| 2026-04-26 19:20 | 26.76434 | -80.49204 | 3970 ft | 222 kts | 228° |
| 2026-04-26 19:20 | 26.75161 | -80.50180 | 3972 ft | 218 kts | 202° |
| 2026-04-26 19:21 | 26.73716 | -80.50387 | 3970 ft | 206 kts | 174° |
| 2026-04-26 19:21 | 26.72807 | -80.50082 | 3940 ft | 203 kts | 154° |
| 2026-04-26 19:21 | 26.71509 | -80.48613 | 3815 ft | 202 kts | 117° |
| 2026-04-26 19:21 | 26.70966 | -80.47180 | 3738 ft | 198 kts | 112° |
| 2026-04-26 19:22 | 26.70449 | -80.45760 | 3668 ft | 193 kts | 113° |
| 2026-04-26 19:22 | 26.70016 | -80.44383 | 3663 ft | 183 kts | 105° |
| 2026-04-26 19:22 | 26.69785 | -80.42996 | 3548 ft | 180 kts | 97° |
| 2026-04-26 19:22 | 26.69671 | -80.41625 | 3412 ft | 177 kts | 94° |
| 2026-04-26 19:23 | 26.69588 | -80.40259 | 3286 ft | 175 kts | 94° |
| 2026-04-26 19:23 | 26.69518 | -80.38883 | 3156 ft | 174 kts | 93° |
| 2026-04-26 19:23 | 26.69458 | -80.37553 | 3039 ft | 173 kts | 93° |
| 2026-04-26 19:23 | 26.69401 | -80.36216 | 2956 ft | 169 kts | 92° |
| 2026-04-26 19:24 | 26.69347 | -80.34934 | 2898 ft | 162 kts | 92° |
| 2026-04-26 19:24 | 26.69295 | -80.33677 | 2762 ft | 160 kts | 92° |
| 2026-04-26 19:24 | 26.69187 | -80.31104 | 2988 ft | 170 kts | 92° |
| 2026-04-26 19:25 | 26.69133 | -80.29768 | 2799 ft | 175 kts | 93° |
| 2026-04-26 19:25 | 26.69114 | -80.29326 | 2698 ft | 173 kts | 93° |
| 2026-04-26 19:25 | 26.69017 | -80.27099 | 2207 ft | 163 kts | 94° |
| 2026-04-26 19:25 | 26.68929 | -80.25853 | 1911 ft | 162 kts | 96° |
| 2026-04-26 19:26 | 26.68903 | -80.24605 | 1550 ft | 164 kts | 88° |
| 2026-04-26 19:26 | 26.68938 | -80.23367 | 1381 ft | 150 kts | 91° |
| 2026-04-26 19:26 | 26.68928 | -80.22607 | 1254 ft | 143 kts | 96° |
| 2026-04-26 19:26 | 26.68726 | -80.21228 | 1014 ft | 128 kts | 93° |
| 2026-04-26 19:27 | 26.68695 | -80.20261 | 760 ft | 123 kts | 95° |
| 2026-04-26 19:27 | 26.68678 | -80.19286 | 693 ft | 129 kts | 94° |
| 2026-04-26 19:27 | 26.68678 | -80.18246 | 1206 ft | 138 kts | 92° |
| 2026-04-26 19:27 | 26.68663 | -80.17539 | 1621 ft | 143 kts | 91° |
| 2026-04-26 19:28 | 26.68579 | -80.15961 | 1727 ft | 159 kts | 97° |
| 2026-04-26 19:28 | 26.68518 | -80.15115 | 1359 ft | 172 kts | 94° |
| 2026-04-26 19:28 | 26.68467 | -80.13347 | 705 ft | 163 kts | 94° |
| 2026-04-26 19:28 | 26.68401 | -80.12134 | 316 ft | 152 kts | 97° |
| 2026-04-26 19:29 | 26.68333 | -80.10994 | 109 ft | 144 kts | 97° |
| 2026-04-26 19:29 | 26.68285 | -80.09792 | 23 ft | 147 kts | 95° |
| 2026-04-26 19:29 | 26.68245 | -80.08876 | 21 ft | 81 kts | 88° |
| 2026-04-26 19:29 | 26.68220 | -80.08476 | 21 ft | 26 kts | 94° |
| 2026-04-26 19:30 | 26.68215 | -80.08390 | 20 ft | 0 kts | 94° |
| 2026-04-26 19:30 | 26.68212 | -80.08333 | 20 ft | 22 kts | 92° |
| 2026-04-26 19:30 | 26.68252 | -80.08170 | 20 ft | 7 kts | 25° |
| 2026-04-26 19:30 | 26.68253 | -80.08169 | 20 ft | 0 kts | 24° |
| 2026-04-26 19:32 | 26.68259 | -80.08167 | 20 ft | 4 kts | 14° |
| 2026-04-26 19:32 | 26.68306 | -80.08194 | 20 ft | 10 kts | 295° |
| 2026-04-26 19:32 | 26.68320 | -80.08322 | 20 ft | 24 kts | 273° |
| 2026-04-26 19:33 | 26.68326 | -80.08511 | 20 ft | 23 kts | 273° |
| 2026-04-26 19:33 | 26.68336 | -80.08697 | 21 ft | 22 kts | 273° |
| 2026-04-26 19:33 | 26.68344 | -80.08852 | 21 ft | 21 kts | 273° |
| 2026-04-26 19:33 | 26.68351 | -80.09038 | 21 ft | 24 kts | 273° |
| 2026-04-26 19:34 | 26.68360 | -80.09225 | 21 ft | 23 kts | 272° |
| 2026-04-26 19:34 | 26.68404 | -80.09358 | 21 ft | 0 kts | 317° |
| 2026-04-26 19:34 | 26.68407 | -80.09361 | 21 ft | 2 kts | 318° |
| 2026-04-26 19:34 | 26.68479 | -80.09358 | 21 ft | 8 kts | 34° |
| 2026-04-26 19:35 | 26.68547 | -80.09380 | 21 ft | 18 kts | 316° |
| 2026-04-26 19:35 | 26.68630 | -80.09466 | 21 ft | 23 kts | 318° |
| 2026-04-26 19:35 | 26.68751 | -80.09443 | 21 ft | 13 kts | 55° |
| 2026-04-26 19:35 | 26.68776 | -80.09391 | 21 ft | 10 kts | 54° |
| 2026-04-26 19:36 | 26.68777 | -80.09312 | 21 ft | 3 kts | 133° |
| 2026-04-26 19:36 | 26.68771 | -80.09305 | 21 ft | 3 kts | 135° |
| 2026-04-26 19:36 | 26.68762 | -80.09296 | 21 ft | 0 kts | 136° |